Time;durP1;ratioP1;P1;durP2;ratioP2;P2;SDS_P1;SDS_P2;PMS_P1;PMS_P2;Temp;Humidity;BMP_temperature;BMP_pressure;BME280_temperature;BME280_humidity;BME280_pressure;Samples;Min_cycle;Max_cycle;Signal;HPM_P1;HPM_P2
2022/04/09 00:00:24;;;;;;;6.63;3.58;;;;;;;1.42;100.00;98345.84;5072656;28;20060;-84
2022/04/09 00:02:50;;;;;;;6.53;3.47;;;;;;;1.54;100.00;98367.09;5073443;28;20031;-84
2022/04/09 00:05:16;;;;;;;6.63;4.18;;;;;;;1.42;100.00;98357.97;5054756;28;20040;-86
2022/04/09 00:07:42;;;;;;;6.47;3.88;;;;;;;1.60;100.00;98380.41;5072751;28;20032;-84
2022/04/09 00:10:09;;;;;;;7.07;4.07;;;;;;;1.67;100.00;98391.75;5054195;28;20074;-83
2022/04/09 00:12:35;;;;;;;9.60;4.10;;;;;;;1.63;100.00;98380.09;5054168;28;20024;-84
2022/04/09 00:15:01;;;;;;;8.00;3.72;;;;;;;1.71;100.00;98393.88;5053541;28;20400;-85
2022/04/09 00:17:27;;;;;;;6.28;3.55;;;;;;;1.23;100.00;98330.53;5037808;28;20036;-84
2022/04/09 00:19:52;;;;;;;7.75;4.03;;;;;;;1.39;100.00;98373.81;5054213;28;20423;-83
2022/04/09 00:22:19;;;;;;;5.65;3.53;;;;;;;1.38;100.00;98390.28;5053504;28;20466;-84
2022/04/09 00:24:44;;;;;;;6.97;3.13;;;;;;;1.51;100.00;98403.63;5071511;28;20089;-84
2022/04/09 00:27:10;;;;;;;4.35;2.78;;;;;;;1.60;100.00;98411.44;5071945;28;20458;-84
2022/04/09 00:29:36;;;;;;;4.57;2.90;;;;;;;1.25;100.00;98350.13;5057944;28;20020;-84
2022/04/09 00:32:02;;;;;;;8.52;3.17;;;;;;;1.49;100.00;98382.25;5054305;28;20040;-84
2022/04/09 00:34:28;;;;;;;5.78;2.78;;;;;;;1.36;100.00;98368.91;5054320;28;20077;-84
2022/04/09 00:36:54;;;;;;;5.78;3.00;;;;;;;1.43;100.00;98382.88;5038477;28;20036;-83
2022/04/09 00:39:20;;;;;;;4.13;2.90;;;;;;;1.64;100.00;98402.41;5072099;28;20092;-84
2022/04/09 00:41:47;;;;;;;8.07;3.28;;;;;;;1.63;100.00;98411.13;5073190;28;20115;-83
2022/04/09 00:44:17;;;;;;;5.50;2.75;;;;;;;1.66;100.00;98410.81;5054366;28;20028;-85
2022/04/09 00:46:43;;;;;;;8.13;3.00;;;;;;;1.54;100.00;98405.91;5054809;28;20024;-83
2022/04/09 00:49:09;;;;;;;3.70;2.60;;;;;;;1.65;100.00;98417.75;5071608;28;20036;-84
2022/04/09 00:51:39;;;;;;;6.28;3.00;;;;;;;1.56;100.00;98406.56;5055804;28;20033;-85
2022/04/09 00:54:05;;;;;;;6.00;2.72;;;;;;;1.48;100.00;98382.44;5090198;28;20071;-84
2022/04/09 00:56:33;;;;;;;6.88;3.17;;;;;;;1.60;100.00;98406.28;5075279;28;20082;-84
2022/04/09 00:59:02;;;;;;;7.38;2.97;;;;;;;1.69;100.00;98426.88;5055702;28;20378;-85
2022/04/09 01:01:31;;;;;;;6.30;2.90;;;;;;;1.36;100.00;98374.09;5055047;28;20461;-83
2022/04/09 01:04:05;;;;;;;7.43;2.92;;;;;;;1.50;100.00;98391.66;5053364;28;20036;-84
2022/04/09 01:06:35;;;;;;;5.28;2.72;;;;;;;1.70;100.00;98419.91;5053838;28;20040;-84
2022/04/09 01:09:02;;;;;;;6.60;3.35;;;;;;;1.58;100.00;98419.34;5071134;28;20040;-84
2022/04/09 01:11:30;;;;;;;10.77;3.00;;;;;;;1.67;100.00;98433.97;5054903;28;20032;-85
2022/04/09 01:13:57;;;;;;;7.20;3.40;;;;;;;1.56;100.00;98416.91;5037811;28;20020;-84
2022/04/09 01:16:24;;;;;;;9.27;3.15;;;;;;;1.42;100.00;98397.56;5055361;28;20036;-84
2022/04/09 01:18:50;;;;;;;8.90;3.70;;;;;;;1.59;100.00;98430.53;5037243;28;20031;-84
2022/04/09 01:21:16;;;;;;;8.50;3.40;;;;;;;1.53;100.00;98422.38;5053684;28;20029;-86
2022/04/09 01:23:41;;;;;;;7.63;3.33;;;;;;;1.68;100.00;98435.59;5053908;28;20028;-84
2022/04/09 01:26:07;;;;;;;6.10;3.22;;;;;;;1.70;100.00;98438.00;5053682;28;20024;-86
2022/04/09 01:28:34;;;;;;;8.63;3.55;;;;;;;1.51;100.00;98398.44;5054033;28;20067;-87
2022/04/09 01:31:00;;;;;;;6.35;3.17;;;;;;;1.52;100.00;98418.16;5057490;28;20036;-84
2022/04/09 01:33:25;;;;;;;7.30;3.15;;;;;;;1.78;100.00;98450.19;5057507;28;20474;-82
2022/04/09 01:35:51;;;;;;;7.82;3.25;;;;;;;1.69;100.00;98446.75;5075295;28;20021;-84
2022/04/09 01:38:18;;;;;;;7.50;2.97;;;;;;;1.74;100.00;98447.09;5074770;28;20039;-83
2022/04/09 01:40:43;;;;;;;6.55;2.78;;;;;;;1.74;100.00;98459.22;5057785;28;20100;-84
2022/04/09 01:43:09;;;;;;;6.72;3.60;;;;;;;1.59;100.00;98427.94;5058780;28;20431;-86
2022/04/09 01:45:36;;;;;;;4.57;2.47;;;;;;;1.89;100.00;98456.88;5040848;28;20035;-84
2022/04/09 01:48:02;;;;;;;8.38;3.10;;;;;;;1.87;100.00;98449.28;5075836;28;20123;-86
2022/04/09 01:50:29;;;;;;;6.40;2.88;;;;;;;1.84;100.00;98450.41;5057148;28;20021;-85
2022/04/09 01:52:56;;;;;;;4.40;2.78;;;;;;;1.80;100.00;98438.72;5074863;28;20098;-84
2022/04/09 01:55:22;;;;;;;12.88;2.80;;;;;;;2.01;100.00;98466.03;5057614;28;20034;-85
2022/04/09 01:57:49;;;;;;;7.30;2.85;;;;;;;1.91;100.00;98444.59;5057280;28;20431;-84
2022/04/09 02:00:16;;;;;;;6.30;2.92;;;;;;;2.01;100.00;98471.22;5075081;28;20115;-83
2022/04/09 02:02:43;;;;;;;7.65;2.85;;;;;;;1.58;100.00;98428.91;5075880;28;20031;-85
2022/04/09 02:05:12;;;;;;;7.05;3.20;;;;;;;1.76;100.00;98460.69;5058785;28;20035;-85
2022/04/09 02:07:39;;;;;;;7.32;3.28;;;;;;;1.85;100.00;98472.72;5056592;28;20070;-85
2022/04/09 02:10:06;;;;;;;5.47;3.03;;;;;;;1.85;100.00;98472.72;5075336;28;20613;-85
2022/04/09 02:12:32;;;;;;;5.72;3.08;;;;;;;1.88;100.00;98469.03;5087709;28;20048;-84
2022/04/09 02:15:10;;;;;;;6.57;3.00;;;;;;;1.85;100.00;98475.31;5055791;28;20461;-85
2022/04/09 02:17:38;;;;;;;6.78;3.10;;;;;;;1.98;100.00;98492.22;5056324;28;20053;-84
2022/04/09 02:20:05;;;;;;;5.30;2.67;;;;;;;1.86;100.00;98481.28;5073486;28;20040;-84
2022/04/09 02:22:49;;;;;;;5.60;2.63;;;;;;;1.94;100.00;98496.88;5039955;28;20024;-84
2022/04/09 02:25:17;;;;;;;5.80;3.10;;;;;;;1.85;100.00;98490.84;5071366;28;20036;-86
2022/04/09 02:27:43;;;;;;;8.10;3.25;;;;;;;1.78;100.00;98482.06;5057036;28;20811;-86
2022/04/09 02:30:10;;;;;;;7.22;3.50;;;;;;;1.85;100.00;98501.19;5057036;28;20029;-86
2022/04/09 02:32:48;;;;;;;6.47;2.70;;;;;;;1.75;100.00;98487.53;5041400;28;20159;-84
2022/04/09 02:35:14;;;;;;;8.10;3.05;;;;;;;1.81;100.00;98491.28;5072705;28;20115;-85
2022/04/09 02:37:40;;;;;;;9.35;3.45;;;;;;;1.73;100.00;98483.47;5074907;28;20094;-86
2022/04/09 02:40:06;;;;;;;5.57;3.05;;;;;;;1.83;100.00;98510.88;5039035;28;20166;-86
2022/04/09 02:42:36;;;;;;;6.38;3.25;;;;;;;1.75;100.00;98482.34;5057088;28;20028;-85
2022/04/09 02:45:04;;;;;;;7.70;3.10;;;;;;;1.89;100.00;98500.88;5073465;28;20033;-86
2022/04/09 02:47:30;;;;;;;10.02;3.65;;;;;;;1.86;100.00;98504.56;5038746;28;20107;-86
2022/04/09 02:49:55;;;;;;;7.35;3.17;;;;;;;1.64;100.00;98493.75;5072858;28;20116;-87
2022/04/09 02:52:21;;;;;;;6.15;3.35;;;;;;;1.65;100.00;98497.16;5046275;28;20032;-85
2022/04/09 02:54:47;;;;;;;7.10;4.03;;;;;;;1.67;100.00;98497.81;5043982;28;20470;-86
2022/04/09 02:57:13;;;;;;;5.25;3.40;;;;;;;1.51;100.00;98481.22;5027796;28;20056;-85
2022/04/09 02:59:38;;;;;;;5.47;3.25;;;;;;;1.75;100.00;98513.41;5045675;28;20466;-86
2022/04/09 03:02:04;;;;;;;7.40;4.18;;;;;;;1.64;100.00;98513.66;5025422;28;20063;-86
2022/04/09 03:04:29;;;;;;;9.55;3.75;;;;;;;1.63;100.00;98504.28;5041380;28;20049;-85
2022/04/09 03:06:56;;;;;;;6.75;3.45;;;;;;;1.59;100.00;98493.41;5045291;28;20028;-86
2022/04/09 03:09:22;;;;;;;7.30;3.70;;;;;;;1.73;100.00;98525.69;5058670;28;20028;-86
2022/04/09 03:11:48;;;;;;;7.22;3.05;;;;;;;1.46;100.00;98504.13;5044003;28;20029;-85
2022/04/09 03:14:13;;;;;;;8.48;4.40;;;;;;;1.45;100.00;98504.28;5026253;28;20072;-86
2022/04/09 03:16:39;;;;;;;14.02;4.38;;;;;;;1.36;100.00;98487.88;5061915;28;20047;-87
2022/04/09 03:19:04;;;;;;;9.50;4.25;;;;;;;1.56;100.00;98545.44;5057244;28;20028;-84
2022/04/09 03:21:30;;;;;;;10.15;4.95;;;;;;;1.46;100.00;98535.16;5063365;28;20483;-84
2022/04/09 03:23:56;;;;;;;7.65;4.93;;;;;;;1.36;100.00;98509.38;5045088;28;20441;-85
2022/04/09 03:26:21;;;;;;;11.57;5.03;;;;;;;1.45;100.00;98533.53;5025750;28;20115;-84
2022/04/09 03:28:47;;;;;;;12.35;5.03;;;;;;;1.51;100.00;98537.31;5060226;28;20108;-85
2022/04/09 03:31:12;;;;;;;9.32;5.20;;;;;;;1.42;100.00;98528.69;5044854;28;20167;-86
2022/04/09 03:33:38;;;;;;;11.07;5.10;;;;;;;1.51;100.00;98532.94;5059584;28;20048;-85
2022/04/09 03:36:06;;;;;;;12.80;5.10;;;;;;;1.50;100.00;98541.66;5045449;28;20029;-85
2022/04/09 03:38:31;;;;;;;15.40;5.22;;;;;;;1.62;100.00;98528.50;5044895;28;20075;-84
2022/04/09 03:40:57;;;;;;;10.88;6.00;;;;;;;1.74;100.00;98547.19;5060627;28;20059;-85
2022/04/09 03:43:23;;;;;;;8.65;5.25;;;;;;;1.68;100.00;98564.97;5063106;28;20056;-84
2022/04/09 03:45:49;;;;;;;11.02;5.28;;;;;;;1.41;100.00;98486.47;5058853;28;20035;-84
2022/04/09 03:48:14;;;;;;;9.52;5.07;;;;;;;1.75;100.00;98562.56;5045330;28;20482;-85
2022/04/09 03:50:40;;;;;;;13.75;5.43;;;;;;;1.65;100.00;98541.94;5046697;28;20119;-87
2022/04/09 03:53:05;;;;;;;12.13;5.63;;;;;;;1.38;100.00;98520.38;5058611;28;20041;-85
2022/04/09 03:55:31;;;;;;;13.70;6.43;;;;;;;1.60;100.00;98556.31;5024246;28;20081;-86
2022/04/09 03:57:57;;;;;;;11.52;4.97;;;;;;;1.40;100.00;98556.47;5061044;28;20028;-84
2022/04/09 04:00:22;;;;;;;11.05;5.50;;;;;;;1.58;100.00;98584.09;5042968;28;20032;-83
2022/04/09 04:02:48;;;;;;;15.70;5.53;;;;;;;1.49;100.00;98568.50;5043951;28;20120;-83
2022/04/09 04:05:13;;;;;;;10.32;5.68;;;;;;;1.43;100.00;98580.22;5024797;28;20025;-85
2022/04/09 04:07:44;;;;;;;11.27;5.40;;;;;;;1.39;100.00;98603.97;5027851;28;20032;-84
2022/04/09 04:10:13;;;;;;;11.05;5.70;;;;;;;1.35;100.00;98594.84;5024638;28;20028;-86
2022/04/09 04:12:43;;;;;;;12.73;5.65;;;;;;;1.26;100.00;98589.59;5043014;28;20163;-84
2022/04/09 04:15:10;;;;;;;14.65;5.57;;;;;;;1.07;100.00;98571.63;5057884;28;20459;-86
2022/04/09 04:17:41;;;;;;;13.65;6.47;;;;;;;1.03;100.00;98568.50;5041415;28;20037;-85
2022/04/09 04:20:07;;;;;;;11.95;5.57;;;;;;;0.96;100.00;98550.19;5059254;28;20394;-84
2022/04/09 04:22:34;;;;;;;12.77;5.75;;;;;;;1.18;100.00;98592.13;5036915;28;20029;-86
2022/04/09 04:25:00;;;;;;;10.25;5.40;;;;;;;1.22;100.00;98583.09;5046479;28;20039;-84
2022/04/09 04:27:25;;;;;;;15.52;4.95;;;;;;;1.03;100.00;98549.63;5045733;28;20116;-87
2022/04/09 04:29:51;;;;;;;13.27;5.13;;;;;;;1.06;100.00;98546.75;5045622;28;20470;-87
2022/04/09 04:32:17;;;;;;;13.15;4.25;;;;;;;1.15;100.00;98566.53;5039994;28;20502;-87
2022/04/09 04:34:43;;;;;;;10.18;4.20;;;;;;;1.20;100.00;98574.69;5026023;28;20033;-85
2022/04/09 04:37:08;;;;;;;10.85;4.13;;;;;;;1.18;100.00;98581.78;5026254;28;20025;-84
2022/04/09 04:39:34;;;;;;;12.75;3.88;;;;;;;1.23;100.00;98582.16;5024821;28;20033;-83
2022/04/09 04:41:59;;;;;;;13.38;4.32;;;;;;;1.11;100.00;98570.38;5044289;28;20029;-84
2022/04/09 04:44:25;;;;;;;11.85;3.53;;;;;;;1.32;100.00;98601.16;5033005;28;20024;-81
2022/04/09 04:46:50;;;;;;;9.52;3.88;;;;;;;1.32;100.00;98598.56;5046743;28;20098;-83
2022/04/09 04:49:16;;;;;;;14.73;4.22;;;;;;;1.33;100.00;98604.53;5028778;28;20020;-85
2022/04/09 04:51:42;;;;;;;11.25;4.03;;;;;;;1.19;100.00;98570.47;5022736;28;20470;-83
2022/04/09 04:54:07;;;;;;;12.88;4.95;;;;;;;1.48;100.00;98610.84;5058967;28;20051;-85
2022/04/09 04:56:33;;;;;;;11.25;4.55;;;;;;;1.39;100.00;98622.06;5041942;28;20029;-85
2022/04/09 04:58:59;;;;;;;9.57;5.00;;;;;;;1.33;100.00;98617.47;5035303;28;20033;-85
2022/04/09 05:01:24;;;;;;;14.02;5.10;;;;;;;1.23;100.00;98610.59;5027861;28;20033;-85
2022/04/09 05:03:50;;;;;;;12.88;5.80;;;;;;;1.16;100.00;98608.72;5061333;28;20033;-85
2022/04/09 05:06:16;;;;;;;10.85;4.68;;;;;;;1.14;100.00;98583.84;5064259;28;20057;-85
2022/04/09 05:08:41;;;;;;;11.65;5.00;;;;;;;1.13;100.00;98578.78;5051224;28;20037;-86
2022/04/09 05:11:07;;;;;;;13.70;5.22;;;;;;;1.35;100.00;98616.38;5057870;28;20086;-87
2022/04/09 05:13:33;;;;;;;12.13;5.53;;;;;;;1.20;100.00;98590.19;5048051;28;20438;-85
2022/04/09 05:15:59;;;;;;;12.63;5.18;;;;;;;1.27;100.00;98588.66;5045436;28;20024;-86
2022/04/09 05:18:28;;;;;;;14.57;4.75;;;;;;;1.21;100.00;98589.25;5028597;28;20055;-83
2022/04/09 05:20:53;;;;;;;10.65;4.97;;;;;;;1.27;100.00;98593.81;5027261;28;20045;-85
2022/04/09 05:23:19;;;;;;;13.70;5.40;;;;;;;1.46;100.00;98627.44;5061607;28;20055;-83
2022/04/09 05:25:44;;;;;;;10.00;4.80;;;;;;;1.31;100.00;98611.63;5046602;28;20060;-83
2022/04/09 05:28:11;;;;;;;18.73;5.28;;;;;;;1.19;100.00;98595.50;5063324;28;20057;-83
2022/04/09 05:30:36;;;;;;;16.10;5.22;;;;;;;1.34;100.00;98604.41;5065428;28;20115;-82
2022/04/09 05:33:03;;;;;;;12.85;5.78;;;;;;;1.30;100.00;98591.91;5068131;28;20409;-83
2022/04/09 05:35:30;;;;;;;24.17;7.28;;;;;;;1.28;100.00;98605.00;5047855;28;20028;-84
2022/04/09 05:37:55;;;;;;;9.93;5.55;;;;;;;1.49;100.00;98643.50;5045397;28;20036;-86
2022/04/09 05:40:22;;;;;;;14.05;5.97;;;;;;;1.30;100.00;98620.34;5046717;28;20025;-84
2022/04/09 05:42:48;;;;;;;16.77;6.50;;;;;;;1.17;100.00;98590.47;5069848;28;20119;-83
2022/04/09 05:45:15;;;;;;;14.23;5.95;;;;;;;1.30;100.00;98612.59;5061982;28;20033;-82
2022/04/09 05:47:45;;;;;;;13.65;6.47;;;;;;;1.50;100.00;98634.78;5030516;28;20119;-82
2022/04/09 05:50:12;;;;;;;15.75;6.03;;;;;;;1.54;100.00;98653.41;5050073;28;20035;-84
2022/04/09 05:52:39;;;;;;;15.40;5.32;;;;;;;1.64;100.00;98640.41;5041830;28;20494;-85
2022/04/09 05:55:06;;;;;;;14.95;5.90;;;;;;;1.66;100.00;98654.03;5038536;28;20492;-84
2022/04/09 05:57:32;;;;;;;16.98;5.85;;;;;;;1.59;100.00;98629.72;5089012;28;20031;-84
2022/04/09 05:59:58;;;;;;;14.05;5.18;;;;;;;1.76;100.00;98644.41;5057535;28;20040;-86
2022/04/09 06:02:24;;;;;;;15.18;5.93;;;;;;;1.84;100.00;98643.66;5060240;28;20063;-84
2022/04/09 06:04:49;;;;;;;14.20;4.47;;;;;;;1.69;100.00;98646.78;5076108;28;20070;-83
2022/04/09 06:07:15;;;;;;;19.45;4.63;;;;;;;1.85;100.00;98651.31;5071998;28;20020;-83
2022/04/09 06:09:41;;;;;;;15.07;4.93;;;;;;;1.71;100.00;98631.09;5039144;28;20058;-84
2022/04/09 06:12:08;;;;;;;11.20;4.30;;;;;;;2.06;100.00;98665.72;5054959;28;20052;-84
2022/04/09 06:14:35;;;;;;;11.60;4.13;;;;;;;2.18;100.00;98691.41;5056114;28;20503;-84
2022/04/09 06:17:00;;;;;;;11.85;3.28;;;;;;;2.07;100.00;98651.00;5053562;28;20383;-82
2022/04/09 06:19:27;;;;;;;17.88;3.80;;;;;;;2.27;100.00;98677.53;5071950;28;20043;-83
2022/04/09 06:21:53;;;;;;;9.05;3.47;;;;;;;2.26;100.00;98657.78;5073223;28;20032;-84
2022/04/09 06:24:19;;;;;;;7.55;3.17;;;;;;;2.38;100.00;98679.91;5061075;28;20028;-87
2022/04/09 06:26:45;;;;;;;13.50;3.20;;;;;;;2.52;100.00;98664.75;5049836;28;20036;-86
2022/04/09 06:29:10;;;;;;;10.43;3.20;;;;;;;2.57;100.00;98673.72;5072976;28;20552;-82
2022/04/09 06:31:36;;;;;;;7.78;3.53;;;;;;;2.69;100.00;98687.22;5072871;28;20035;-83
2022/04/09 06:34:01;;;;;;;8.10;3.35;;;;;;;2.50;100.00;98662.34;5055894;28;20111;-87
2022/04/09 06:36:28;;;;;;;17.60;5.75;;;;;;;2.39;100.00;98658.22;5074474;28;20043;-84
2022/04/09 06:38:54;;;;;;;15.82;3.88;;;;;;;2.60;100.00;98708.06;5055823;28;20032;-86
2022/04/09 06:41:20;;;;;;;12.38;3.50;;;;;;;2.77;100.00;98693.44;5073656;28;20024;-86
2022/04/09 06:43:46;;;;;;;10.77;3.70;;;;;;;2.64;100.00;98699.84;5054549;28;20537;-85
2022/04/09 06:46:13;;;;;;;11.05;3.53;;;;;;;2.62;100.00;98706.94;5056126;28;20028;-86
2022/04/09 06:48:39;;;;;;;10.65;3.60;;;;;;;2.81;100.00;98731.84;5044299;28;20032;-84
2022/04/09 06:51:04;;;;;;;8.63;3.53;;;;;;;2.73;100.00;98685.16;5072904;28;20081;-85
2022/04/09 06:53:30;;;;;;;14.27;3.92;;;;;;;2.73;100.00;98703.28;5054496;28;20116;-83
2022/04/09 06:55:55;;;;;;;12.13;3.03;;;;;;;2.86;100.00;98726.22;5054306;28;20428;-83
2022/04/09 06:58:21;;;;;;;15.90;3.83;;;;;;;2.91;100.00;98725.78;5038042;28;20025;-84
2022/04/09 07:00:47;;;;;;;13.93;3.63;;;;;;;2.98;100.00;98730.19;5037918;28;20070;-84
2022/04/09 07:03:13;;;;;;;18.63;3.40;;;;;;;2.99;100.00;98737.00;5039046;28;20478;-85
2022/04/09 07:05:40;;;;;;;14.48;3.58;;;;;;;2.90;100.00;98721.56;5056194;28;20028;-87
2022/04/09 07:08:08;;;;;;;8.95;3.10;;;;;;;3.04;100.00;98730.53;5039550;28;20386;-84
2022/04/09 07:10:36;;;;;;;7.00;3.03;;;;;;;3.10;100.00;98735.09;5039782;28;20055;-83
2022/04/09 07:13:02;;;;;;;17.60;3.85;;;;;;;3.05;100.00;98737.34;5055963;28;20025;-87
2022/04/09 07:15:29;;;;;;;11.85;3.25;;;;;;;3.27;100.00;98756.78;5055591;28;20020;-85
2022/04/09 07:17:55;;;;;;;14.95;3.42;;;;;;;3.43;100.00;98767.22;5055494;28;20032;-83
2022/04/09 07:20:21;;;;;;;11.57;3.75;;;;;;;3.36;100.00;98768.00;5073487;28;20501;-84
2022/04/09 07:22:47;;;;;;;10.25;2.83;;;;;;;3.24;100.00;98744.91;5088823;28;20033;-83
2022/04/09 07:25:13;;;;;;;9.07;3.35;;;;;;;3.38;100.00;98763.47;5052929;28;20465;-83
2022/04/09 07:27:44;;;;;;;8.82;2.97;;;;;;;3.52;100.00;98783.63;5052846;28;20043;-81
2022/04/09 07:30:20;;;;;;;15.88;3.35;;;;;;;3.48;100.00;98791.91;5071552;28;20474;-81
2022/04/09 07:32:48;;;;;;;11.00;3.17;;;;;;;3.55;100.00;98778.16;5051599;28;20111;-81
2022/04/09 07:35:15;;;;;;;15.20;3.08;;;;;;;3.57;100.00;98822.94;5069051;28;20473;-82
2022/04/09 07:37:43;;;;;;;11.48;2.63;;;;;;;3.39;100.00;98771.09;5071039;28;20025;-82
2022/04/09 07:40:14;;;;;;;9.93;3.95;;;;;;;3.68;100.00;98815.81;5052450;28;20153;-79
2022/04/09 07:42:41;;;;;;;7.97;2.80;;;;;;;3.55;100.00;98816.25;5036438;28;20032;-82
2022/04/09 07:45:08;;;;;;;10.85;3.15;;;;;;;3.22;100.00;98775.38;5053162;28;20032;-83
2022/04/09 07:47:33;;;;;;;11.43;3.35;;;;;;;3.43;100.00;98766.41;5072666;28;20032;-84
2022/04/09 07:50:00;;;;;;;18.75;3.85;;;;;;;3.64;100.00;98815.34;5071203;28;20020;-84
2022/04/09 07:52:27;;;;;;;10.18;2.78;;;;;;;3.51;100.00;98784.59;5070495;28;20042;-80
2022/04/09 07:54:52;;;;;;;12.98;3.45;;;;;;;3.83;100.00;98806.50;5036451;28;20412;-81
2022/04/09 07:57:19;;;;;;;17.95;3.40;;;;;;;3.63;100.00;98815.50;5068338;28;20052;-81
2022/04/09 07:59:45;;;;;;;7.88;3.40;;;;;;;3.77;100.00;98822.69;5070814;28;20493;-80
2022/04/09 08:02:10;;;;;;;9.40;3.97;;;;;;;3.76;100.00;98836.66;5071189;28;20139;-79
2022/04/09 08:04:36;;;;;;;15.38;5.15;;;;;;;3.63;100.00;98828.47;5071064;28;20032;-85
2022/04/09 08:07:02;;;;;;;9.60;3.70;;;;;;;3.74;100.00;98802.25;5072971;28;20037;-85
2022/04/09 08:09:28;;;;;;;13.13;4.15;;;;;;;3.80;100.00;98822.38;5072927;28;20028;-86
2022/04/09 08:11:54;;;;;;;11.75;3.25;;;;;;;3.94;100.00;98836.56;5059181;28;20082;-88
2022/04/09 08:14:19;;;;;;;13.55;3.40;;;;;;;4.03;100.00;98842.59;5055373;28;20040;-88
2022/04/09 08:17:10;;;;;;;11.85;3.10;;;;;;;4.22;100.00;98848.50;5039723;28;20119;-88
2022/04/09 08:19:36;;;;;;;16.73;3.28;;;;;;;4.27;100.00;98846.22;5057706;28;20035;-90
2022/04/09 08:22:03;;;;;;;9.57;3.20;;;;;;;4.32;100.00;98858.75;5077253;28;20052;-88
2022/04/09 08:24:29;;;;;;;8.52;3.40;;;;;;;4.15;100.00;98832.72;5061833;28;20082;-89
2022/04/09 08:26:55;;;;;;;16.13;2.90;;;;;;;3.90;100.00;98813.63;5058038;28;20366;-88
2022/04/09 08:29:21;;;;;;;8.57;2.65;;;;;;;3.86;100.00;98813.97;5057151;28;20129;-84
2022/04/09 08:31:47;;;;;;;14.82;2.55;;;;;;;4.03;100.00;98849.56;5037287;28;20096;-83
2022/04/09 08:34:14;;;;;;;11.48;3.20;;;;;;;4.31;100.00;98865.72;5071875;28;20532;-83
2022/04/09 08:36:40;;;;;;;6.90;2.50;;;;;;;4.31;100.00;98855.34;5050462;28;20074;-81
2022/04/09 08:39:06;;;;;;;7.68;2.55;;;;;;;4.50;100.00;98866.41;5071407;28;20028;-81
2022/04/09 08:41:31;;;;;;;6.03;2.50;;;;;;;4.47;100.00;98871.94;5057115;28;20478;-81
2022/04/09 08:43:57;;;;;;;8.20;2.60;;;;;;;4.54;100.00;98873.75;5075262;28;20159;-84
2022/04/09 08:46:26;;;;;;;11.75;2.97;;;;;;;4.57;100.00;98876.03;5073666;28;20020;-81
2022/04/09 08:48:51;;;;;;;11.27;2.90;;;;;;;4.36;100.00;98850.50;5040507;28;20036;-80
2022/04/09 08:51:18;;;;;;;8.80;2.40;;;;;;;4.67;100.00;98877.69;5057408;28;20039;-81
2022/04/09 08:53:45;;;;;;;7.18;2.50;;;;;;;4.36;100.00;98834.91;5055799;28;20055;-79
2022/04/09 08:56:12;;;;;;;8.60;2.97;;;;;;;4.90;100.00;98896.06;5054674;28;20033;-82
2022/04/09 08:58:38;;;;;;;9.75;2.50;;;;;;;4.81;100.00;98905.63;5040613;28;20032;-81
2022/04/09 09:01:04;;;;;;;8.57;3.00;;;;;;;4.69;100.00;98896.53;5057813;28;20090;-82
2022/04/09 09:03:30;;;;;;;12.10;3.17;;;;;;;4.96;100.00;98885.03;5074720;28;20032;-81
2022/04/09 09:05:56;;;;;;;9.05;2.47;;;;;;;5.17;100.00;98903.72;5039424;28;20094;-81
2022/04/09 09:08:40;;;;;;;7.18;2.80;;;;;;;4.90;100.00;98883.06;5057037;28;20111;-81
2022/04/09 09:11:05;;;;;;;;;;;;;;;5.17;100.00;98909.75;5056846;28;20029;-81
2022/04/09 09:13:46;;;;;;;8.98;3.15;;;;;;;5.34;100.00;98910.56;5074793;28;19962;-82
2022/04/09 09:16:21;;;;;;;9.15;2.75;;;;;;;5.50;100.00;98901.94;5039363;28;20066;-80
2022/04/09 09:18:50;;;;;;;7.70;2.78;;;;;;;5.38;100.00;98909.25;5073449;28;20032;-80
2022/04/09 09:21:18;;;;;;;9.55;2.47;;;;;;;5.41;100.00;98908.09;5072888;28;20028;-82
2022/04/09 09:23:44;;;;;;;15.30;3.20;;;;;;;5.09;100.00;98907.13;5056493;28;20032;-80
2022/04/09 09:26:10;;;;;;;14.07;3.38;;;;;;;5.34;100.00;98907.94;5054169;28;20466;-80
2022/04/09 09:28:35;;;;;;;9.02;3.05;;;;;;;5.43;100.00;98911.34;5073937;28;20474;-80
2022/04/09 09:31:02;;;;;;;8.95;2.90;;;;;;;5.42;100.00;98917.53;5056591;28;20033;-80
2022/04/09 09:33:28;;;;;;;14.13;3.28;;;;;;;5.31;100.00;98936.13;5037823;28;20052;-80
2022/04/09 09:35:59;;;;;;;14.00;2.78;;;;;;;5.16;100.00;98918.53;5073487;28;20664;-80
2022/04/09 09:38:29;;;;;;;5.38;2.88;;;;;;;5.54;100.00;98915.41;5037991;28;20123;-80
2022/04/09 09:40:56;;;;;;;10.90;2.83;;;;;;;5.46;100.00;98916.22;5073707;28;20032;-79
2022/04/09 09:43:24;;;;;;;6.90;2.97;;;;;;;5.72;100.00;98920.44;5039015;28;20389;-81
2022/04/09 09:45:51;;;;;;;8.30;2.90;;;;;;;5.73;100.00;98893.44;5073203;28;20093;-81
2022/04/09 09:48:27;;;;;;;9.05;3.10;;;;;;;5.88;100.00;98913.56;5055263;28;20585;-81
2022/04/09 09:50:55;;;;;;;9.73;3.13;;;;;;;6.14;100.00;98914.16;5054989;28;20096;-82
2022/04/09 09:53:28;;;;;;;9.25;3.33;;;;;;;6.45;100.00;98917.78;5055673;28;20449;-80
2022/04/09 09:55:53;;;;;;;9.05;4.40;;;;;;;6.23;100.00;98893.28;5056064;28;20024;-81
2022/04/09 09:58:21;;;;;;;7.07;5.50;;;;;;;6.30;96.14;98909.88;5073578;28;20044;-80
2022/04/09 10:00:47;;;;;;;8.57;5.40;;;;;;;6.22;94.34;98886.44;5073903;28;20439;-80
2022/04/09 10:03:13;;;;;;;8.65;6.28;;;;;;;6.39;93.78;98914.06;5055774;28;20029;-81
2022/04/09 10:05:42;;;;;;;6.63;5.28;;;;;;;6.18;91.67;98926.84;5072293;28;20115;-80
2022/04/09 10:08:08;;;;;;;5.72;5.20;;;;;;;6.19;90.52;98908.47;5071854;28;20025;-81
2022/04/09 10:10:40;;;;;;;6.18;5.57;;;;;;;6.33;92.89;98927.78;5055611;28;20040;-81
2022/04/09 10:13:06;;;;;;;6.38;5.35;;;;;;;6.44;89.84;98929.19;5055583;28;20116;-81
2022/04/09 10:15:33;;;;;;;5.88;5.10;;;;;;;6.49;89.34;98915.66;5038908;28;20587;-81
2022/04/09 10:18:00;;;;;;;10.60;5.57;;;;;;;6.66;89.61;98939.84;5055146;28;20405;-80
2022/04/09 10:20:29;;;;;;;5.57;5.15;;;;;;;6.28;85.69;98914.41;5055190;28;20036;-80
2022/04/09 10:22:58;;;;;;;5.28;4.80;;;;;;;6.51;84.16;98929.34;5072103;28;20393;-80
2022/04/09 10:25:29;;;;;;;5.38;4.97;;;;;;;6.35;83.80;98919.78;5054411;28;20039;-81
2022/04/09 10:28:03;;;;;;;5.60;5.18;;;;;;;6.52;83.96;98938.78;5055817;28;20043;-84
2022/04/09 10:30:41;;;;;;;5.18;4.88;;;;;;;6.53;83.80;98963.88;5055158;28;20378;-81
2022/04/09 10:33:26;;;;;;;6.63;5.35;;;;;;;6.53;84.20;98980.31;5054727;28;20551;-84
2022/04/09 10:35:53;;;;;;;5.70;5.18;;;;;;;6.52;85.00;98949.22;5055518;28;20028;-83
2022/04/09 10:38:21;;;;;;;5.30;4.90;;;;;;;6.72;84.78;98960.84;5055508;28;20429;-83
2022/04/09 10:40:55;;;;;;;6.15;5.32;;;;;;;6.61;84.74;98950.00;5039257;28;20039;-83
2022/04/09 10:43:24;;;;;;;5.45;5.05;;;;;;;6.74;87.22;98941.59;5073620;28;20112;-82
2022/04/09 10:46:02;;;;;;;5.47;5.10;;;;;;;7.02;85.38;98951.53;5053924;28;20025;-85
2022/04/09 10:48:29;;;;;;;5.30;4.90;;;;;;;6.97;84.62;98932.00;5055907;28;20134;-85
2022/04/09 10:51:04;;;;;;;5.57;5.07;;;;;;;7.21;83.80;98966.72;5054536;28;20498;-84
2022/04/09 10:53:32;;;;;;;8.30;5.28;;;;;;;7.35;84.60;98961.75;5054274;28;20040;-84
2022/04/09 10:56:21;;;;;;;8.07;5.80;;;;;;;7.60;83.06;98943.25;5072804;28;20020;-84
2022/04/09 10:59:04;;;;;;;5.72;5.07;;;;;;;7.72;84.84;98957.50;5072589;28;20029;-79
2022/04/09 11:01:51;;;;;;;6.88;5.32;;;;;;;8.17;82.16;98941.03;5054994;28;20032;-81
2022/04/09 11:04:29;;;;;;;5.70;5.15;;;;;;;8.47;82.85;98938.41;5036400;28;20045;-81
2022/04/09 11:07:17;;;;;;;6.15;5.60;;;;;;;8.35;81.84;98904.88;5054382;28;20405;-82
2022/04/09 11:09:59;;;;;;;6.38;5.25;;;;;;;8.52;78.38;98946.53;5052960;28;20032;-82
2022/04/09 11:12:28;;;;;;;8.88;5.40;;;;;;;8.09;79.65;98947.16;5037611;28;20508;-81
2022/04/09 11:14:58;;;;;;;7.15;5.03;;;;;;;8.49;79.32;98936.41;5072292;28;20031;-82
2022/04/09 11:17:28;;;;;;;5.97;5.35;;;;;;;8.51;78.17;98930.03;5071700;28;20036;-82
2022/04/09 11:19:55;;;;;;;9.52;5.95;;;;;;;8.60;77.12;98899.31;5037630;28;20029;-83
2022/04/09 11:22:21;;;;;;;7.63;5.80;;;;;;;8.69;77.93;98944.50;5038436;28;20079;-82
2022/04/09 11:24:47;;;;;;;8.10;5.88;;;;;;;8.28;77.95;98958.91;5072068;28;20024;-83
2022/04/09 11:27:13;;;;;;;6.53;5.38;;;;;;;8.67;78.51;98963.03;5053588;28;20501;-81
2022/04/09 11:29:40;;;;;;;6.85;6.35;;;;;;;8.81;78.20;98963.16;5054037;28;20036;-82
2022/04/09 11:32:15;;;;;;;5.88;5.30;;;;;;;8.97;76.49;98942.00;5053278;28;20086;-82